Latest Weather Observations for Moree

IDN60801

Issued at 6:52 pm EST Wednesday 12 August 2020 (issued every 10 minutes, with the page automatically refreshed every 10 minutes)

About weather observations | Map of weather stations | Latest weather observations for NSW | Other Formats
Station Details ID: 053115 Name: MOREE AERO Lat: -29.49 Lon: 149.85 Height: 213.0 m
Data from the previous 72 hours. | See also: Recent months at Moree
Date/Time
EST
Temp
°C
App
Temp
°C
Dew
Point
°C
Rel
Hum
%
Delta-T
°C
Wind Press
QNH
hPa
Press
MSL
hPa
Rain since
9am
mm
Dir  Spd
km/h
Gust
km/h
Spd
kts
Gust
kts
12/06:30pm 18.1 15.2 9.5 57 4.6 NE 15 19 8 10 1013.1 1013.1 0.0
12/06:00pm 18.7 15.7 9.2 54 5.0 NE 15 19 8 10 1012.8 1012.8 0.0
12/05:30pm 19.4 16.6 8.4 49 5.8 NE 13 15 7 8 1012.9 1012.9 0.0
12/05:00pm 20.3 17.1 8.3 46 6.3 NNE 15 19 8 10 1013.0 1013.0 0.0
12/04:30pm 20.9 17.2 7.9 43 6.8 NNE 17 22 9 12 1013.0 1013.0 0.0
12/04:00pm 21.3 18.0 7.9 42 7.0 N 15 19 8 10 1012.9 1012.9 0.0
12/03:30pm 21.4 17.2 7.6 41 7.2 N 19 26 10 14 1013.0 1013.0 0.0
12/03:00pm 22.7 17.5 7.3 37 8.1 N 24 32 13 17 1013.0 1013.0 0.0
12/02:30pm 22.8 17.1 6.6 35 8.4 N 26 35 14 19 1013.3 1013.3 0.0
12/02:00pm 22.7 17.6 7.7 38 7.9 N 24 37 13 20 1013.4 1013.4 0.0
12/01:30pm 22.5 16.7 7.9 39 7.7 N 28 35 15 19 1013.8 1013.8 0.0
12/01:00pm 22.6 17.1 9.0 42 7.3 NNE 28 39 15 21 1014.5 1014.4 0.0
12/12:30pm 21.7 17.1 9.6 46 6.6 N 24 35 13 19 1015.4 1015.3 0.0
12/12:00pm 20.5 15.1 9.4 49 6.0 N 28 39 15 21 1015.8 1015.7 0.0
12/11:30am 19.2 14.0 10.2 56 4.9 NNE 28 39 15 21 1016.3 1016.3 0.0
12/11:00am 19.8 13.7 9.7 52 5.4 NNE 32 39 17 21 1016.8 1016.8 0.0
12/10:30am 18.6 12.5 9.9 57 4.7 NNE 32 41 17 22 1017.5 1017.5 0.0
12/10:00am 17.5 11.7 10.9 65 3.6 NNE 32 43 17 23 1017.8 1017.8 0.0
12/09:30am 15.6 9.2 9.5 67 3.2 NNE 33 44 18 24 1018.1 1018.1 0.0
12/09:00am 15.3 9.2 9.9 70 2.8 NNE 32 39 17 21 1018.0 1018.0 0.0
12/08:30am 14.1 7.8 9.7 75 2.3 NNE 33 44 18 24 1018.1 1018.1 0.0
12/08:00am 13.4 7.3 9.6 78 2.0 NNE 32 39 17 21 1018.2 1018.2 0.0
12/07:30am 12.3 6.8 9.3 82 1.5 NE 28 35 15 19 1018.2 1018.2 0.0
12/07:00am 11.8 7.0 8.8 82 1.5 NE 24 33 13 18 1018.1 1018.1 0.0
12/06:30am 11.6 6.7 8.6 82 1.5 NE 24 30 13 16 1017.8 1017.8 0.0
12/06:00am 11.6 7.5 8.6 82 1.5 NE 20 28 11 15 1017.8 1017.8 0.0
12/05:30am 11.3 6.7 8.3 82 1.5 NE 22 28 12 15 1017.5 1017.5 0.0
12/05:00am 11.3 6.7 8.2 81 1.5 NE 22 28 12 15 1017.1 1017.1 0.0
12/04:30am 11.2 7.1 7.9 80 1.6 NE 19 26 10 14 1016.6 1016.6 0.0
12/04:00am 11.6 7.3 7.7 77 1.9 NE 20 28 11 15 1016.4 1016.4 0.0
12/03:30am 11.4 7.4 8.4 82 1.5 ENE 19 22 10 12 1016.3 1016.3 0.0
12/03:00am 9.4 5.0 7.3 87 1.0 E 20 28 11 15 1016.5 1016.5 0.0
12/02:30am 9.8 5.6 7.6 86 1.1 E 19 24 10 13 1016.8 1016.8 0.0
12/02:00am 10.7 7.7 7.9 83 1.4 E 13 19 7 10 1017.1 1017.1 0.0
12/01:30am 10.8 6.8 8.2 84 1.3 ENE 19 26 10 14 1016.8 1016.8 0.0
12/01:00am 10.6 7.3 8.2 85 1.2 E 15 19 8 10 1017.3 1017.3 0.0
12/12:30am 11.1 7.2 8.5 84 1.3 ENE 19 24 10 13 1017.2 1017.2 0.0
12/12:00am 11.0 7.8 8.4 84 1.3 E 15 20 8 11 1017.2 1017.2 0.0
 
Date/Time
EST
Temp
°C
App
Temp
°C
Dew
Point
°C
Rel
Hum
%
Delta-T
°C
Wind Press
QNH
hPa
Press
MSL
hPa
Rain since
9am
mm
Dir  Spd
km/h
Gust
km/h
Spd
kts
Gust
kts
11/11:30pm 10.8 8.3 8.2 84 1.3 ENE 11 15 6 8 1017.4 1017.4 0.0
11/11:00pm 11.2 8.7 8.4 83 1.4 E 11 13 6 7 1017.4 1017.4 0.0
11/10:30pm 11.6 11.2 8.3 80 1.6 CALM 0 0 0 0 1017.4 1017.4 0.0
11/10:00pm 11.1 9.0 8.1 82 1.5 ENE 9 11 5 6 1017.4 1017.4 0.0
11/09:30pm 11.4 9.7 8.3 81 1.5 ENE 7 9 4 5 1017.1 1017.1 0.0
11/09:00pm 12.2 10.6 8.9 80 1.7 NE 7 9 4 5 1017.3 1017.3 0.0
11/08:30pm 12.2 10.2 8.7 79 1.8 NE 9 11 5 6 1017.5 1017.5 0.0
11/08:00pm 12.4 10.4 8.5 77 2.0 N 9 11 5 6 1017.7 1017.7 0.0
11/07:30pm 13.3 11.6 8.4 72 2.5 N 7 9 4 5 1017.7 1017.7 0.0
11/07:00pm 14.0 12.4 8.6 70 2.7 NNE 7 9 4 5 1017.3 1017.3 0.0
11/06:30pm 14.3 12.5 8.0 66 3.2 NNE 7 7 4 4 1017.2 1017.2 0.0
11/06:00pm 15.4 13.6 7.9 61 3.8 NE 7 9 4 5 1016.8 1016.8 0.0
11/05:30pm 16.1 14.3 7.8 58 4.2 NNE 7 9 4 5 1016.7 1016.7 0.0
11/05:00pm 16.8 13.7 7.4 54 4.7 NNE 13 15 7 8 1016.4 1016.4 0.0
11/04:30pm 17.9 14.4 7.0 49 5.5 NNE 15 20 8 11 1016.3 1016.3 0.0
11/04:00pm 19.0 15.4 6.8 45 6.2 NNE 15 22 8 12 1016.4 1016.4 0.0
11/03:30pm 19.5 16.2 6.3 42 6.7 N 13 20 7 11 1016.7 1016.7 0.0
11/03:00pm 19.6 16.2 6.0 41 6.8 NNE 13 20 7 11 1016.8 1016.8 0.0
11/02:30pm 20.2 16.9 6.2 40 7.1 NNE 13 20 7 11 1017.0 1017.0 0.0
11/02:00pm 20.1 17.5 6.1 40 7.0 NNE 9 13 5 7 1017.2 1017.2 0.0
11/01:30pm 19.2 16.9 7.3 46 6.1 NE 9 15 5 8 1017.6 1017.6 0.0
11/01:00pm 18.7 16.0 7.5 48 5.7 NE 11 17 6 9 1018.1 1018.1 0.0
11/12:30pm 18.2 15.6 7.6 50 5.4 NE 11 20 6 11 1018.7 1018.7 0.0
11/12:00pm 17.7 14.6 7.2 50 5.3 NE 13 19 7 10 1019.1 1019.1 0.0
11/11:30am 16.8 14.2 6.3 50 5.2 ESE 9 19 5 10 1019.4 1019.3 0.0
11/11:00am 16.1 12.9 6.8 54 4.6 E 13 22 7 12 1019.9 1019.8 0.0
11/10:30am 14.9 10.9 6.7 58 4.0 ESE 17 24 9 13 1020.2 1020.2 0.0
11/10:00am 14.2 10.2 6.8 61 3.6 ESE 17 22 9 12 1020.5 1020.5 0.0
11/09:30am 12.8 10.1 7.3 69 2.7 ESE 11 17 6 9 1020.4 1020.4 0.0
11/09:00am 11.4 9.3 6.7 73 2.2 ESE 7 9 4 5 1020.5 1020.5 0.0
11/08:30am 10.0 8.4 6.2 77 1.8 ENE 4 7 2 4 1020.6 1020.6 0.0
11/08:00am 8.3 6.8 5.2 81 1.4 ESE 2 7 1 4 1020.6 1020.6 0.0
11/07:30am 5.5 3.8 4.2 91 0.6 W 2 7 1 4 1020.5 1020.5 0.0
11/07:00am 3.4 0.5 2.5 94 0.4 NW 7 9 4 5 1020.2 1020.2 0.0
11/06:30am 3.8 1.2 3.1 95 0.3 ESE 6 7 3 4 1019.5 1019.4 0.0
11/06:00am 2.7 1.0 2.0 95 0.3 CALM 0 0 0 0 1019.2 1019.2 0.0
11/05:30am 3.2 0.2 2.3 94 0.4 WSW 7 9 4 5 1018.9 1018.9 0.0
11/05:00am 3.3 1.7 2.3 93 0.4 CALM 0 6 0 3 1018.7 1018.7 0.0
11/04:30am 3.4 1.7 2.1 91 0.5 CALM 0 0 0 0 1018.6 1018.6 0.0
11/04:00am 4.2 2.6 2.4 88 0.7 CALM 0 0 0 0 1018.4 1018.4 0.0
11/03:30am 5.1 2.1 2.3 82 1.1 SW 7 9 4 5 1018.4 1018.4 0.0
11/03:00am 5.9 2.0 3.6 85 1.0 SE 13 15 7 8 1018.2 1018.2 0.0
11/02:30am 7.0 3.8 5.3 89 0.8 SSE 11 15 6 8 1018.2 1018.2 0.0
11/02:00am 5.6 1.9 4.2 91 0.6 SE 13 15 7 8 1018.3 1018.3 0.0
11/01:30am 5.3 1.4 3.6 89 0.7 SSE 13 13 7 7 1018.5 1018.5 0.0
11/01:00am 6.2 2.9 4.7 90 0.7 SSE 11 11 6 6 1018.7 1018.7 0.0
11/12:30am 6.5 2.4 4.3 86 1.0 SSE 15 17 8 9 1018.8 1018.8 0.0
11/12:00am 6.9 3.7 5.1 88 0.8 S 11 15 6 8 1019.1 1019.1 0.0
 
Date/Time
EST
Temp
°C
App
Temp
°C
Dew
Point
°C
Rel
Hum
%
Delta-T
°C
Wind Press
QNH
hPa
Press
MSL
hPa
Rain since
9am
mm
Dir  Spd
km/h
Gust
km/h
Spd
kts
Gust
kts
10/11:30pm 7.0 3.8 5.2 88 0.8 SSE 11 15 6 8 1019.1 1019.1 0.0
10/11:00pm 6.7 2.6 4.5 86 1.0 S 15 15 8 8 1019.2 1019.2 0.0
10/10:30pm 7.2 3.7 5.3 88 0.9 S 13 15 7 8 1019.0 1019.0 0.0
10/10:00pm 8.5 4.5 6.6 88 0.9 SSW 17 20 9 11 1019.0 1019.0 0.0
10/09:30pm 8.4 4.8 6.9 90 0.7 SW 15 17 8 9 1018.9 1018.9 0.0
10/09:00pm 8.9 6.6 7.5 91 0.7 WSW 9 11 5 6 1019.0 1019.0 0.0
10/08:30pm 9.3 7.1 7.9 91 0.7 SSW 9 13 5 7 1018.9 1018.9 0.0
10/08:00pm 9.1 6.4 7.2 88 0.9 SW 11 13 6 7 1018.5 1018.5 0.0
10/07:30pm 9.9 7.7 7.7 86 1.1 SW 9 11 5 6 1018.2 1018.2 0.0
10/07:00pm 10.4 7.5 8.0 85 1.2 SW 13 15 7 8 1017.8 1017.8 0.0
10/06:30pm 10.8 7.2 8.2 84 1.3 SW 17 19 9 10 1017.7 1017.7 0.0
10/06:00pm 11.6 8.1 8.6 82 1.5 SW 17 20 9 11 1017.3 1017.3 0.0
10/05:30pm 12.8 8.9 8.7 76 2.1 SW 19 24 10 13 1017.0 1017.0 0.0
10/05:00pm 13.7 10.3 9.2 74 2.3 WSW 17 22 9 12 1016.5 1016.5 0.0
10/04:30pm 14.9 10.6 9.3 69 2.9 SW 22 32 12 17 1016.0 1016.0 0.0
10/04:00pm 15.2 11.3 8.7 65 3.3 SW 19 24 10 13 1015.7 1015.6 0.0
10/03:30pm 15.7 11.8 8.7 63 3.6 SW 19 24 10 13 1015.5 1015.4 0.0
10/03:00pm 15.2 11.2 8.2 63 3.6 SW 19 26 10 14 1015.6 1015.5 0.0
10/02:30pm 15.2 11.1 8.0 62 3.6 SW 19 24 10 13 1015.6 1015.5 0.0
10/02:00pm 15.7 11.6 7.7 59 4.0 SW 19 26 10 14 1015.6 1015.5 0.0
10/01:30pm 14.3 9.9 7.6 64 3.3 SW 20 28 11 15 1015.8 1015.7 0.0
10/01:00pm 14.8 11.1 8.1 64 3.4 SW 17 26 9 14 1015.6 1015.5 0.0
10/12:30pm 14.8 10.7 8.5 66 3.2 SW 20 28 11 15 1015.5 1015.4 0.0
10/12:00pm 13.4 8.3 7.8 69 2.8 SW 24 32 13 17 1015.7 1015.6 0.0
10/11:30am 12.8 8.2 8.1 73 2.3 SW 22 32 12 17 1016.0 1016.0 0.0
10/11:25am 13.0 8.3 7.7 70 2.6 SW 22 32 12 17 1016.1 1016.1 0.0
10/11:00am 12.8 8.1 7.7 71 2.5 SW 22 30 12 16 1015.8 1015.7 0.0
10/10:30am 11.5 6.4 7.6 77 1.9 SSW 24 30 13 16 1016.0 1016.0 0.0
10/10:00am 10.8 4.9 7.5 80 1.6 SW 28 33 15 18 1016.0 1016.0 0.0
10/09:30am 9.2 4.3 7.0 86 1.0 SW 22 30 12 16 1016.1 1016.1 0.0
10/09:00am 8.6 2.9 6.9 89 0.8 WSW 26 32 14 17 1015.9 1015.8 1.0
10/08:30am 8.2 2.9 6.7 90 0.7 WSW 24 28 13 15 1015.7 1015.6 1.0
10/08:00am 7.7 2.7 6.6 93 0.5 WSW 22 30 12 16 1015.5 1015.4 1.0
10/07:30am 7.1 2.6 6.0 93 0.5 SW 19 24 10 13 1015.2 1015.1 1.0
10/07:00am 6.7 1.2 5.7 93 0.5 SW 24 30 13 16 1014.9 1014.8 1.0
10/06:30am 6.7 0.4 5.5 92 0.5 WSW 28 32 15 17 1014.7 1014.6 1.0
10/06:00am 6.5 2.6 5.3 92 0.5 W 15 20 8 11 1014.1 1014.1 1.0
10/05:42am 6.5 3.3 5.3 92 0.5 W 11 13 6 7 1014.1 1014.1 1.0
10/05:30am 6.5 3.3 5.3 92 0.5 W 11 15 6 8 1014.0 1014.0 1.0
10/05:00am 6.2 3.0 5.2 93 0.4 WNW 11 15 6 8 1013.6 1013.6 1.0
10/04:30am 5.9 2.7 5.0 94 0.4 W 11 15 6 8 1013.5 1013.5 1.0
10/04:00am 5.7 2.1 5.0 95 0.3 W 13 15 7 8 1013.4 1013.4 1.0
10/03:30am 5.7 2.5 5.0 95 0.3 W 11 13 6 7 1013.6 1013.6 1.0
10/03:00am 5.5 1.8 4.6 94 0.4 W 13 15 7 8 1013.7 1013.7 1.0
10/02:30am 6.2 2.7 5.3 94 0.4 W 13 15 7 8 1013.6 1013.6 1.0
10/02:00am 5.9 2.3 4.9 93 0.4 W 13 15 7 8 1013.7 1013.7 1.0
10/01:30am 6.7 2.9 5.7 93 0.5 WNW 15 15 8 8 1014.0 1014.0 1.0
10/01:00am 7.0 3.2 5.8 92 0.5 W 15 15 8 8 1014.0 1014.0 1.0
10/12:30am 7.6 4.2 6.1 90 0.7 W 13 15 7 8 1013.9 1013.9 1.0
10/12:00am 8.4 4.8 6.7 89 0.8 W 15 17 8 9 1013.9 1013.9 1.0
 
Date/Time
EST
Temp
°C
App
Temp
°C
Dew
Point
°C
Rel
Hum
%
Delta-T
°C
Wind Press
QNH
hPa
Press
MSL
hPa
Rain since
9am
mm
Dir  Spd
km/h
Gust
km/h
Spd
kts
Gust
kts
09/11:30pm 8.7 5.2 7.0 89 0.8 W 15 20 8 11 1014.1 1014.1 1.0
09/11:00pm 8.7 5.9 7.0 89 0.8 WSW 11 13 6 7 1014.6 1014.5 1.0
09/10:30pm 8.8 6.0 6.9 88 0.9 W 11 13 6 7 1014.6 1014.5 1.0
09/10:00pm 9.0 6.6 7.1 88 0.9 W 9 11 5 6 1014.7 1014.6 1.0
09/09:30pm 9.1 6.3 7.1 87 1.0 W 11 13 6 7 1014.9 1014.8 1.0
09/09:00pm 9.5 7.1 6.9 84 1.2 W 9 9 5 5 1014.9 1014.8 1.0
09/08:30pm 9.7 6.9 7.0 83 1.3 WNW 11 11 6 6 1014.9 1014.8 1.0
09/08:00pm 9.8 7.1 7.2 84 1.2 WNW 11 13 6 7 1014.8 1014.7 1.0
09/07:30pm 9.7 7.0 7.3 85 1.2 W 11 11 6 6 1014.7 1014.6 1.0
09/07:00pm 10.0 7.6 6.9 81 1.5 WSW 9 11 5 6 1014.5 1014.4 1.0

Other formats

Comma delimited format used in spreadsheet applications
http://www.bom.gov.au/fwo/IDN60801/IDN60801.95527.axf

JavaScript Object Notation format (JSON) in row-major order
http://www.bom.gov.au/fwo/IDN60801/IDN60801.95527.json

Data quality

Most of these data are generated automatically and are frequently updated. Quality checks on data are not normally performed. It is possible for incorrect values to appear. Refer to information at About Latest Weather Observations and please check the disclaimer before using these data.